sensor_id;sensor_type;location;lat;lon;timestamp;P1;durP1;ratioP1;P2;durP2;ratioP2
8952;SDS011;4511;50.890;8.054;2023-04-05T00:02:10;6.17;;;5.57;;
8952;SDS011;4511;50.890;8.054;2023-04-05T00:04:38;6.87;;;6.20;;
8952;SDS011;4511;50.890;8.054;2023-04-05T00:07:17;7.30;;;6.10;;
8952;SDS011;4511;50.890;8.054;2023-04-05T00:09:45;6.60;;;6.00;;
8952;SDS011;4511;50.890;8.054;2023-04-05T00:12:13;10.93;;;6.10;;
8952;SDS011;4511;50.890;8.054;2023-04-05T00:14:39;6.73;;;6.03;;
8952;SDS011;4511;50.890;8.054;2023-04-05T00:17:06;6.93;;;6.23;;
8952;SDS011;4511;50.890;8.054;2023-04-05T00:19:33;6.83;;;6.13;;
8952;SDS011;4511;50.890;8.054;2023-04-05T00:22:02;7.13;;;6.40;;
8952;SDS011;4511;50.890;8.054;2023-04-05T00:24:30;6.03;;;5.53;;
8952;SDS011;4511;50.890;8.054;2023-04-05T00:26:57;6.63;;;5.90;;
8952;SDS011;4511;50.890;8.054;2023-04-05T00:29:25;5.97;;;5.40;;
8952;SDS011;4511;50.890;8.054;2023-04-05T00:31:51;5.97;;;5.43;;
8952;SDS011;4511;50.890;8.054;2023-04-05T00:34:18;5.90;;;5.30;;
8952;SDS011;4511;50.890;8.054;2023-04-05T00:36:45;6.83;;;5.77;;
8952;SDS011;4511;50.890;8.054;2023-04-05T00:39:12;7.43;;;5.97;;
8952;SDS011;4511;50.890;8.054;2023-04-05T00:41:40;6.37;;;5.53;;
8952;SDS011;4511;50.890;8.054;2023-04-05T00:44:08;6.93;;;6.20;;
8952;SDS011;4511;50.890;8.054;2023-04-05T00:46:36;6.17;;;5.67;;
8952;SDS011;4511;50.890;8.054;2023-04-05T00:49:04;6.80;;;5.30;;
8952;SDS011;4511;50.890;8.054;2023-04-05T00:51:30;6.33;;;4.80;;
8952;SDS011;4511;50.890;8.054;2023-04-05T00:53:58;5.73;;;5.20;;
8952;SDS011;4511;50.890;8.054;2023-04-05T00:56:27;6.07;;;5.30;;
8952;SDS011;4511;50.890;8.054;2023-04-05T00:58:55;7.00;;;5.20;;
8952;SDS011;4511;50.890;8.054;2023-04-05T01:01:22;6.00;;;5.40;;
8952;SDS011;4511;50.890;8.054;2023-04-05T01:03:52;5.90;;;5.40;;
8952;SDS011;4511;50.890;8.054;2023-04-05T01:06:35;5.67;;;5.10;;
8952;SDS011;4511;50.890;8.054;2023-04-05T01:09:10;5.93;;;5.33;;
8952;SDS011;4511;50.890;8.054;2023-04-05T01:11:47;5.67;;;5.10;;
8952;SDS011;4511;50.890;8.054;2023-04-05T01:14:16;6.37;;;5.50;;
8952;SDS011;4511;50.890;8.054;2023-04-05T01:16:42;5.93;;;5.47;;
8952;SDS011;4511;50.890;8.054;2023-04-05T01:19:09;7.37;;;5.30;;
8952;SDS011;4511;50.890;8.054;2023-04-05T01:21:57;5.73;;;4.80;;
8952;SDS011;4511;50.890;8.054;2023-04-05T01:25:01;5.70;;;5.20;;
8952;SDS011;4511;50.890;8.054;2023-04-05T01:27:55;6.40;;;5.30;;
8952;SDS011;4511;50.890;8.054;2023-04-05T01:30:41;7.33;;;5.50;;
8952;SDS011;4511;50.890;8.054;2023-04-05T01:33:13;6.60;;;5.90;;
8952;SDS011;4511;50.890;8.054;2023-04-05T01:35:47;5.73;;;5.33;;
8952;SDS011;4511;50.890;8.054;2023-04-05T01:38:18;5.90;;;5.30;;
8952;SDS011;4511;50.890;8.054;2023-04-05T01:40:50;5.93;;;5.43;;
8952;SDS011;4511;50.890;8.054;2023-04-05T01:43:21;7.10;;;5.20;;
8952;SDS011;4511;50.890;8.054;2023-04-05T01:45:49;5.57;;;5.07;;
8952;SDS011;4511;50.890;8.054;2023-04-05T01:48:16;5.97;;;5.37;;
8952;SDS011;4511;50.890;8.054;2023-04-05T01:50:42;6.20;;;5.30;;
8952;SDS011;4511;50.890;8.054;2023-04-05T01:53:09;6.20;;;5.30;;
8952;SDS011;4511;50.890;8.054;2023-04-05T01:55:36;6.10;;;5.50;;
8952;SDS011;4511;50.890;8.054;2023-04-05T01:58:03;6.20;;;5.57;;
8952;SDS011;4511;50.890;8.054;2023-04-05T02:00:30;6.50;;;5.40;;
8952;SDS011;4511;50.890;8.054;2023-04-05T02:02:58;6.57;;;5.87;;
8952;SDS011;4511;50.890;8.054;2023-04-05T02:05:25;6.30;;;5.70;;
8952;SDS011;4511;50.890;8.054;2023-04-05T02:07:51;6.87;;;5.93;;
8952;SDS011;4511;50.890;8.054;2023-04-05T02:10:18;8.50;;;5.67;;
8952;SDS011;4511;50.890;8.054;2023-04-05T02:12:46;7.73;;;5.97;;
8952;SDS011;4511;50.890;8.054;2023-04-05T02:15:12;6.97;;;5.87;;
8952;SDS011;4511;50.890;8.054;2023-04-05T02:17:40;8.20;;;6.30;;
8952;SDS011;4511;50.890;8.054;2023-04-05T02:20:11;6.53;;;5.90;;
8952;SDS011;4511;50.890;8.054;2023-04-05T02:22:39;6.67;;;6.00;;
8952;SDS011;4511;50.890;8.054;2023-04-05T02:25:09;6.50;;;5.80;;
8952;SDS011;4511;50.890;8.054;2023-04-05T02:27:36;5.93;;;5.40;;
8952;SDS011;4511;50.890;8.054;2023-04-05T02:30:03;6.27;;;5.50;;
8952;SDS011;4511;50.890;8.054;2023-04-05T02:32:31;6.50;;;5.67;;
8952;SDS011;4511;50.890;8.054;2023-04-05T02:34:58;5.90;;;5.40;;
8952;SDS011;4511;50.890;8.054;2023-04-05T02:37:26;7.13;;;5.20;;
8952;SDS011;4511;50.890;8.054;2023-04-05T02:39:53;6.47;;;5.80;;
8952;SDS011;4511;50.890;8.054;2023-04-05T02:42:20;6.47;;;5.60;;
8952;SDS011;4511;50.890;8.054;2023-04-05T02:44:47;5.57;;;5.07;;
8952;SDS011;4511;50.890;8.054;2023-04-05T02:47:13;5.90;;;5.40;;
8952;SDS011;4511;50.890;8.054;2023-04-05T02:49:45;5.53;;;5.03;;
8952;SDS011;4511;50.890;8.054;2023-04-05T02:52:12;6.23;;;5.37;;
8952;SDS011;4511;50.890;8.054;2023-04-05T02:54:40;7.03;;;5.47;;
8952;SDS011;4511;50.890;8.054;2023-04-05T02:57:07;6.23;;;5.63;;
8952;SDS011;4511;50.890;8.054;2023-04-05T02:59:34;6.63;;;5.93;;
8952;SDS011;4511;50.890;8.054;2023-04-05T03:02:02;6.40;;;5.80;;
8952;SDS011;4511;50.890;8.054;2023-04-05T03:04:29;5.83;;;5.30;;
8952;SDS011;4511;50.890;8.054;2023-04-05T03:06:58;6.03;;;5.40;;
8952;SDS011;4511;50.890;8.054;2023-04-05T03:09:27;5.83;;;5.43;;
8952;SDS011;4511;50.890;8.054;2023-04-05T03:11:59;6.80;;;5.83;;
8952;SDS011;4511;50.890;8.054;2023-04-05T03:14:27;5.97;;;5.37;;
8952;SDS011;4511;50.890;8.054;2023-04-05T03:16:54;5.77;;;5.23;;
8952;SDS011;4511;50.890;8.054;2023-04-05T03:19:22;7.13;;;5.93;;
8952;SDS011;4511;50.890;8.054;2023-04-05T03:21:50;6.03;;;5.23;;
8952;SDS011;4511;50.890;8.054;2023-04-05T03:24:17;6.13;;;5.53;;
8952;SDS011;4511;50.890;8.054;2023-04-05T03:26:45;6.47;;;5.67;;
8952;SDS011;4511;50.890;8.054;2023-04-05T03:29:14;6.57;;;5.87;;
8952;SDS011;4511;50.890;8.054;2023-04-05T03:31:43;6.73;;;5.90;;
8952;SDS011;4511;50.890;8.054;2023-04-05T03:34:10;6.60;;;6.00;;
8952;SDS011;4511;50.890;8.054;2023-04-05T03:36:38;9.17;;;5.90;;
8952;SDS011;4511;50.890;8.054;2023-04-05T03:39:10;6.37;;;5.70;;
8952;SDS011;4511;50.890;8.054;2023-04-05T03:41:38;6.87;;;5.70;;
8952;SDS011;4511;50.890;8.054;2023-04-05T03:44:06;6.67;;;6.00;;
8952;SDS011;4511;50.890;8.054;2023-04-05T03:46:36;6.10;;;5.60;;
8952;SDS011;4511;50.890;8.054;2023-04-05T03:49:03;8.00;;;5.90;;
8952;SDS011;4511;50.890;8.054;2023-04-05T03:51:31;5.93;;;5.43;;
8952;SDS011;4511;50.890;8.054;2023-04-05T03:53:58;6.97;;;6.20;;
8952;SDS011;4511;50.890;8.054;2023-04-05T03:56:28;6.07;;;5.47;;
8952;SDS011;4511;50.890;8.054;2023-04-05T03:58:57;6.70;;;6.10;;
8952;SDS011;4511;50.890;8.054;2023-04-05T04:01:27;6.00;;;5.50;;
8952;SDS011;4511;50.890;8.054;2023-04-05T04:03:56;6.23;;;5.63;;
8952;SDS011;4511;50.890;8.054;2023-04-05T04:06:24;6.50;;;5.90;;
8952;SDS011;4511;50.890;8.054;2023-04-05T04:08:51;6.40;;;5.80;;
8952;SDS011;4511;50.890;8.054;2023-04-05T04:11:18;6.33;;;5.70;;
8952;SDS011;4511;50.890;8.054;2023-04-05T04:13:44;6.27;;;5.77;;
8952;SDS011;4511;50.890;8.054;2023-04-05T04:16:11;8.87;;;6.07;;
8952;SDS011;4511;50.890;8.054;2023-04-05T04:18:38;7.57;;;6.13;;
8952;SDS011;4511;50.890;8.054;2023-04-05T04:21:06;7.20;;;6.17;;
8952;SDS011;4511;50.890;8.054;2023-04-05T04:23:34;7.93;;;5.93;;
8952;SDS011;4511;50.890;8.054;2023-04-05T04:26:02;6.70;;;6.00;;
8952;SDS011;4511;50.890;8.054;2023-04-05T04:28:30;7.20;;;6.50;;
8952;SDS011;4511;50.890;8.054;2023-04-05T04:31:03;6.80;;;6.10;;
8952;SDS011;4511;50.890;8.054;2023-04-05T04:33:33;6.73;;;6.13;;
8952;SDS011;4511;50.890;8.054;2023-04-05T04:36:04;9.43;;;6.47;;
8952;SDS011;4511;50.890;8.054;2023-04-05T04:38:37;6.93;;;5.87;;
8952;SDS011;4511;50.890;8.054;2023-04-05T04:41:06;7.10;;;6.40;;
8952;SDS011;4511;50.890;8.054;2023-04-05T04:43:34;8.27;;;6.13;;
8952;SDS011;4511;50.890;8.054;2023-04-05T04:46:07;6.67;;;5.97;;
8952;SDS011;4511;50.890;8.054;2023-04-05T04:48:39;6.70;;;6.10;;
8952;SDS011;4511;50.890;8.054;2023-04-05T04:51:08;6.73;;;6.07;;
8952;SDS011;4511;50.890;8.054;2023-04-05T04:53:35;6.53;;;5.93;;
8952;SDS011;4511;50.890;8.054;2023-04-05T04:56:04;6.23;;;5.63;;
8952;SDS011;4511;50.890;8.054;2023-04-05T04:58:31;7.03;;;6.13;;
8952;SDS011;4511;50.890;8.054;2023-04-05T05:00:58;7.23;;;6.17;;
8952;SDS011;4511;50.890;8.054;2023-04-05T05:03:25;6.83;;;6.10;;
8952;SDS011;4511;50.890;8.054;2023-04-05T05:05:52;6.97;;;6.27;;
8952;SDS011;4511;50.890;8.054;2023-04-05T05:08:20;5.80;;;5.30;;
8952;SDS011;4511;50.890;8.054;2023-04-05T05:10:49;7.00;;;6.30;;
8952;SDS011;4511;50.890;8.054;2023-04-05T05:13:17;7.00;;;6.33;;
8952;SDS011;4511;50.890;8.054;2023-04-05T05:15:43;7.60;;;6.80;;
8952;SDS011;4511;50.890;8.054;2023-04-05T05:18:10;7.00;;;6.30;;
8952;SDS011;4511;50.890;8.054;2023-04-05T05:20:37;6.57;;;5.97;;
8952;SDS011;4511;50.890;8.054;2023-04-05T05:23:05;7.97;;;6.63;;
8952;SDS011;4511;50.890;8.054;2023-04-05T05:25:33;7.40;;;6.70;;
8952;SDS011;4511;50.890;8.054;2023-04-05T05:28:00;7.30;;;6.60;;
8952;SDS011;4511;50.890;8.054;2023-04-05T05:30:27;7.97;;;6.23;;
8952;SDS011;4511;50.890;8.054;2023-04-05T05:32:55;7.50;;;6.77;;
8952;SDS011;4511;50.890;8.054;2023-04-05T05:35:22;8.33;;;6.93;;
8952;SDS011;4511;50.890;8.054;2023-04-05T05:37:49;7.30;;;6.60;;
8952;SDS011;4511;50.890;8.054;2023-04-05T05:40:16;7.60;;;6.80;;
8952;SDS011;4511;50.890;8.054;2023-04-05T05:42:44;8.13;;;6.83;;
8952;SDS011;4511;50.890;8.054;2023-04-05T05:45:11;7.80;;;6.73;;
8952;SDS011;4511;50.890;8.054;2023-04-05T05:47:38;7.30;;;6.60;;
8952;SDS011;4511;50.890;8.054;2023-04-05T05:50:06;9.53;;;7.90;;
8952;SDS011;4511;50.890;8.054;2023-04-05T05:52:34;7.17;;;6.47;;
8952;SDS011;4511;50.890;8.054;2023-04-05T05:55:00;7.60;;;6.77;;
8952;SDS011;4511;50.890;8.054;2023-04-05T05:57:28;9.23;;;6.90;;
8952;SDS011;4511;50.890;8.054;2023-04-05T05:59:56;8.50;;;6.90;;
8952;SDS011;4511;50.890;8.054;2023-04-05T06:02:23;8.50;;;7.67;;
8952;SDS011;4511;50.890;8.054;2023-04-05T06:04:50;8.57;;;7.60;;
8952;SDS011;4511;50.890;8.054;2023-04-05T06:07:17;7.63;;;6.93;;
8952;SDS011;4511;50.890;8.054;2023-04-05T06:09:44;11.47;;;10.23;;
8952;SDS011;4511;50.890;8.054;2023-04-05T06:12:11;13.00;;;10.20;;
8952;SDS011;4511;50.890;8.054;2023-04-05T06:14:38;39.43;;;24.70;;
8952;SDS011;4511;50.890;8.054;2023-04-05T06:17:06;16.20;;;12.70;;
8952;SDS011;4511;50.890;8.054;2023-04-05T06:19:33;17.63;;;13.50;;
8952;SDS011;4511;50.890;8.054;2023-04-05T06:21:59;10.53;;;9.20;;
8952;SDS011;4511;50.890;8.054;2023-04-05T06:24:26;10.67;;;8.57;;
8952;SDS011;4511;50.890;8.054;2023-04-05T06:26:56;9.33;;;8.10;;
8952;SDS011;4511;50.890;8.054;2023-04-05T06:29:23;9.87;;;7.83;;
8952;SDS011;4511;50.890;8.054;2023-04-05T06:31:50;8.60;;;7.80;;
8952;SDS011;4511;50.890;8.054;2023-04-05T06:34:18;9.43;;;7.90;;
8952;SDS011;4511;50.890;8.054;2023-04-05T06:36:44;9.53;;;8.53;;
8952;SDS011;4511;50.890;8.054;2023-04-05T06:39:11;9.27;;;7.90;;
8952;SDS011;4511;50.890;8.054;2023-04-05T06:41:38;9.83;;;8.03;;
8952;SDS011;4511;50.890;8.054;2023-04-05T06:44:05;8.83;;;8.03;;
8952;SDS011;4511;50.890;8.054;2023-04-05T06:46:32;8.40;;;7.60;;
8952;SDS011;4511;50.890;8.054;2023-04-05T06:48:58;10.13;;;8.07;;
8952;SDS011;4511;50.890;8.054;2023-04-05T06:51:26;9.57;;;8.00;;
8952;SDS011;4511;50.890;8.054;2023-04-05T06:53:53;9.07;;;8.17;;
8952;SDS011;4511;50.890;8.054;2023-04-05T06:56:20;9.57;;;8.27;;
8952;SDS011;4511;50.890;8.054;2023-04-05T06:58:48;8.97;;;7.70;;
8952;SDS011;4511;50.890;8.054;2023-04-05T07:01:15;8.93;;;7.90;;
8952;SDS011;4511;50.890;8.054;2023-04-05T07:03:42;9.47;;;8.10;;
8952;SDS011;4511;50.890;8.054;2023-04-05T07:06:09;10.03;;;8.33;;
8952;SDS011;4511;50.890;8.054;2023-04-05T07:08:38;8.30;;;7.33;;
8952;SDS011;4511;50.890;8.054;2023-04-05T07:11:05;8.47;;;7.57;;
8952;SDS011;4511;50.890;8.054;2023-04-05T07:13:31;8.00;;;7.20;;
8952;SDS011;4511;50.890;8.054;2023-04-05T07:15:59;9.77;;;7.60;;
8952;SDS011;4511;50.890;8.054;2023-04-05T07:18:27;9.17;;;7.50;;
8952;SDS011;4511;50.890;8.054;2023-04-05T07:20:55;8.47;;;6.80;;
8952;SDS011;4511;50.890;8.054;2023-04-05T07:23:25;8.50;;;6.80;;
8952;SDS011;4511;50.890;8.054;2023-04-05T07:25:53;7.90;;;6.90;;
8952;SDS011;4511;50.890;8.054;2023-04-05T07:28:20;7.97;;;6.97;;
8952;SDS011;4511;50.890;8.054;2023-04-05T07:30:47;6.87;;;6.27;;
8952;SDS011;4511;50.890;8.054;2023-04-05T07:33:14;7.50;;;6.40;;
8952;SDS011;4511;50.890;8.054;2023-04-05T07:35:41;7.17;;;6.47;;
8952;SDS011;4511;50.890;8.054;2023-04-05T07:38:08;7.10;;;6.40;;
8952;SDS011;4511;50.890;8.054;2023-04-05T07:40:35;6.33;;;5.83;;
8952;SDS011;4511;50.890;8.054;2023-04-05T07:43:03;6.10;;;5.60;;
8952;SDS011;4511;50.890;8.054;2023-04-05T07:45:30;7.63;;;6.87;;
8952;SDS011;4511;50.890;8.054;2023-04-05T07:47:57;6.60;;;6.00;;
8952;SDS011;4511;50.890;8.054;2023-04-05T07:50:25;7.87;;;6.17;;
8952;SDS011;4511;50.890;8.054;2023-04-05T07:52:52;6.57;;;5.97;;
8952;SDS011;4511;50.890;8.054;2023-04-05T07:55:19;6.70;;;6.10;;
8952;SDS011;4511;50.890;8.054;2023-04-05T07:57:46;7.00;;;6.10;;
8952;SDS011;4511;50.890;8.054;2023-04-05T08:00:14;6.23;;;5.63;;
8952;SDS011;4511;50.890;8.054;2023-04-05T08:02:41;6.50;;;5.90;;
8952;SDS011;4511;50.890;8.054;2023-04-05T08:05:08;5.93;;;5.33;;
8952;SDS011;4511;50.890;8.054;2023-04-05T08:07:35;8.53;;;5.20;;
8952;SDS011;4511;50.890;8.054;2023-04-05T08:10:01;5.57;;;5.17;;
8952;SDS011;4511;50.890;8.054;2023-04-05T08:12:28;6.37;;;5.50;;
8952;SDS011;4511;50.890;8.054;2023-04-05T08:14:56;6.83;;;6.03;;
8952;SDS011;4511;50.890;8.054;2023-04-05T08:17:24;6.63;;;5.40;;
8952;SDS011;4511;50.890;8.054;2023-04-05T08:19:52;5.63;;;5.10;;
8952;SDS011;4511;50.890;8.054;2023-04-05T08:22:18;6.73;;;5.33;;
8952;SDS011;4511;50.890;8.054;2023-04-05T08:24:45;7.67;;;5.37;;
8952;SDS011;4511;50.890;8.054;2023-04-05T08:27:12;7.50;;;5.50;;
8952;SDS011;4511;50.890;8.054;2023-04-05T08:29:39;5.70;;;5.20;;
8952;SDS011;4511;50.890;8.054;2023-04-05T08:32:06;5.67;;;4.73;;
8952;SDS011;4511;50.890;8.054;2023-04-05T08:34:35;5.93;;;5.33;;
8952;SDS011;4511;50.890;8.054;2023-04-05T08:37:02;7.00;;;5.00;;
8952;SDS011;4511;50.890;8.054;2023-04-05T08:39:28;7.80;;;5.33;;
8952;SDS011;4511;50.890;8.054;2023-04-05T08:41:58;8.30;;;5.30;;
8952;SDS011;4511;50.890;8.054;2023-04-05T08:44:29;5.93;;;5.00;;
8952;SDS011;4511;50.890;8.054;2023-04-05T08:46:57;5.80;;;5.30;;
8952;SDS011;4511;50.890;8.054;2023-04-05T08:49:25;6.47;;;5.50;;
8952;SDS011;4511;50.890;8.054;2023-04-05T08:51:54;5.97;;;5.47;;
8952;SDS011;4511;50.890;8.054;2023-04-05T08:54:20;6.03;;;5.43;;
8952;SDS011;4511;50.890;8.054;2023-04-05T08:56:47;8.47;;;5.47;;
8952;SDS011;4511;50.890;8.054;2023-04-05T08:59:16;8.63;;;5.53;;
8952;SDS011;4511;50.890;8.054;2023-04-05T09:01:44;5.40;;;5.00;;
8952;SDS011;4511;50.890;8.054;2023-04-05T09:04:14;6.33;;;5.37;;
8952;SDS011;4511;50.890;8.054;2023-04-05T09:06:43;5.60;;;5.10;;
8952;SDS011;4511;50.890;8.054;2023-04-05T09:09:11;5.83;;;5.00;;
8952;SDS011;4511;50.890;8.054;2023-04-05T09:11:40;7.80;;;5.43;;
8952;SDS011;4511;50.890;8.054;2023-04-05T09:14:08;5.63;;;5.13;;
8952;SDS011;4511;50.890;8.054;2023-04-05T09:16:36;6.00;;;5.40;;
8952;SDS011;4511;50.890;8.054;2023-04-05T09:19:04;6.10;;;5.23;;
8952;SDS011;4511;50.890;8.054;2023-04-05T09:21:42;6.20;;;5.60;;
8952;SDS011;4511;50.890;8.054;2023-04-05T09:24:29;6.30;;;5.80;;
8952;SDS011;4511;50.890;8.054;2023-04-05T09:27:07;6.00;;;5.50;;
8952;SDS011;4511;50.890;8.054;2023-04-05T09:29:35;6.70;;;5.60;;
8952;SDS011;4511;50.890;8.054;2023-04-05T09:32:03;6.83;;;5.40;;
8952;SDS011;4511;50.890;8.054;2023-04-05T09:34:31;6.13;;;5.20;;
8952;SDS011;4511;50.890;8.054;2023-04-05T09:36:58;6.00;;;5.40;;
8952;SDS011;4511;50.890;8.054;2023-04-05T09:39:30;6.10;;;5.60;;
8952;SDS011;4511;50.890;8.054;2023-04-05T09:42:03;5.93;;;5.33;;
8952;SDS011;4511;50.890;8.054;2023-04-05T09:47:16;6.57;;;5.33;;
8952;SDS011;4511;50.890;8.054;2023-04-05T09:49:44;5.87;;;5.27;;
8952;SDS011;4511;50.890;8.054;2023-04-05T09:52:20;6.10;;;5.50;;
8952;SDS011;4511;50.890;8.054;2023-04-05T09:54:50;7.90;;;5.90;;
8952;SDS011;4511;50.890;8.054;2023-04-05T09:57:18;6.70;;;5.90;;
8952;SDS011;4511;50.890;8.054;2023-04-05T09:59:45;6.40;;;5.80;;
8952;SDS011;4511;50.890;8.054;2023-04-05T10:02:12;6.30;;;5.60;;
8952;SDS011;4511;50.890;8.054;2023-04-05T10:04:39;7.90;;;6.00;;
8952;SDS011;4511;50.890;8.054;2023-04-05T10:07:06;8.43;;;6.23;;
8952;SDS011;4511;50.890;8.054;2023-04-05T10:09:35;7.50;;;5.70;;
8952;SDS011;4511;50.890;8.054;2023-04-05T10:12:03;5.97;;;5.37;;
8952;SDS011;4511;50.890;8.054;2023-04-05T10:14:31;6.67;;;5.37;;
8952;SDS011;4511;50.890;8.054;2023-04-05T10:16:58;7.53;;;5.30;;
8952;SDS011;4511;50.890;8.054;2023-04-05T10:19:36;6.83;;;5.60;;
8952;SDS011;4511;50.890;8.054;2023-04-05T10:22:20;5.40;;;4.90;;
8952;SDS011;4511;50.890;8.054;2023-04-05T10:24:51;6.93;;;5.63;;
8952;SDS011;4511;50.890;8.054;2023-04-05T10:27:22;5.83;;;5.23;;
8952;SDS011;4511;50.890;8.054;2023-04-05T10:29:59;8.20;;;5.57;;
8952;SDS011;4511;50.890;8.054;2023-04-05T10:32:33;6.30;;;5.20;;
8952;SDS011;4511;50.890;8.054;2023-04-05T10:35:09;5.53;;;5.00;;
8952;SDS011;4511;50.890;8.054;2023-04-05T10:37:45;6.17;;;5.03;;
8952;SDS011;4511;50.890;8.054;2023-04-05T10:40:19;5.43;;;4.97;;
8952;SDS011;4511;50.890;8.054;2023-04-05T10:42:48;5.30;;;4.80;;
8952;SDS011;4511;50.890;8.054;2023-04-05T10:45:17;6.00;;;4.80;;
8952;SDS011;4511;50.890;8.054;2023-04-05T10:47:47;6.03;;;5.13;;
8952;SDS011;4511;50.890;8.054;2023-04-05T10:50:21;5.10;;;4.60;;
8952;SDS011;4511;50.890;8.054;2023-04-05T10:52:48;5.43;;;4.70;;
8952;SDS011;4511;50.890;8.054;2023-04-05T10:55:16;4.90;;;4.40;;
8952;SDS011;4511;50.890;8.054;2023-04-05T10:57:43;5.73;;;4.50;;
8952;SDS011;4511;50.890;8.054;2023-04-05T11:00:13;5.03;;;4.53;;
8952;SDS011;4511;50.890;8.054;2023-04-05T11:02:41;4.80;;;4.40;;
8952;SDS011;4511;50.890;8.054;2023-04-05T11:07:58;5.43;;;4.80;;
8952;SDS011;4511;50.890;8.054;2023-04-05T11:10:28;9.17;;;4.87;;
8952;SDS011;4511;50.890;8.054;2023-04-05T11:13:02;6.30;;;4.90;;
8952;SDS011;4511;50.890;8.054;2023-04-05T11:15:31;5.70;;;4.90;;
8952;SDS011;4511;50.890;8.054;2023-04-05T11:18:03;5.83;;;5.00;;
8952;SDS011;4511;50.890;8.054;2023-04-05T11:20:44;6.03;;;4.83;;
8952;SDS011;4511;50.890;8.054;2023-04-05T11:23:13;6.47;;;5.30;;
8952;SDS011;4511;50.890;8.054;2023-04-05T11:25:44;7.23;;;4.97;;
8952;SDS011;4511;50.890;8.054;2023-04-05T11:28:21;6.27;;;4.67;;
8952;SDS011;4511;50.890;8.054;2023-04-05T11:30:51;5.67;;;4.80;;
8952;SDS011;4511;50.890;8.054;2023-04-05T11:36:30;5.10;;;4.60;;
8952;SDS011;4511;50.890;8.054;2023-04-05T11:41:58;5.77;;;4.60;;
8952;SDS011;4511;50.890;8.054;2023-04-05T11:44:26;5.53;;;4.67;;
8952;SDS011;4511;50.890;8.054;2023-04-05T11:46:57;5.10;;;4.60;;
8952;SDS011;4511;50.890;8.054;2023-04-05T11:49:23;5.90;;;4.97;;
8952;SDS011;4511;50.890;8.054;2023-04-05T11:51:51;5.60;;;4.53;;
8952;SDS011;4511;50.890;8.054;2023-04-05T11:54:27;5.47;;;4.90;;
8952;SDS011;4511;50.890;8.054;2023-04-05T11:56:56;5.83;;;4.67;;
8952;SDS011;4511;50.890;8.054;2023-04-05T11:59:27;6.70;;;5.20;;
8952;SDS011;4511;50.890;8.054;2023-04-05T12:02:00;5.00;;;4.50;;
8952;SDS011;4511;50.890;8.054;2023-04-05T12:04:29;4.73;;;4.33;;
8952;SDS011;4511;50.890;8.054;2023-04-05T12:07:09;5.37;;;4.87;;
8952;SDS011;4511;50.890;8.054;2023-04-05T12:12:22;4.43;;;4.07;;
8952;SDS011;4511;50.890;8.054;2023-04-05T12:14:49;4.83;;;4.43;;
8952;SDS011;4511;50.890;8.054;2023-04-05T12:17:17;5.83;;;4.17;;
8952;SDS011;4511;50.890;8.054;2023-04-05T12:19:44;4.07;;;3.70;;
8952;SDS011;4511;50.890;8.054;2023-04-05T12:22:11;5.20;;;4.50;;
8952;SDS011;4511;50.890;8.054;2023-04-05T12:24:38;5.37;;;4.80;;
8952;SDS011;4511;50.890;8.054;2023-04-05T12:27:05;5.47;;;4.90;;
8952;SDS011;4511;50.890;8.054;2023-04-05T12:29:32;5.23;;;4.67;;
8952;SDS011;4511;50.890;8.054;2023-04-05T12:31:59;4.60;;;4.17;;
8952;SDS011;4511;50.890;8.054;2023-04-05T12:34:30;5.87;;;3.80;;
8952;SDS011;4511;50.890;8.054;2023-04-05T12:36:57;5.73;;;4.10;;
8952;SDS011;4511;50.890;8.054;2023-04-05T12:39:27;4.93;;;3.90;;
8952;SDS011;4511;50.890;8.054;2023-04-05T12:41:55;5.03;;;4.40;;
8952;SDS011;4511;50.890;8.054;2023-04-05T12:44:27;4.40;;;4.00;;
8952;SDS011;4511;50.890;8.054;2023-04-05T12:46:58;4.70;;;4.27;;
8952;SDS011;4511;50.890;8.054;2023-04-05T12:49:26;4.60;;;4.20;;
8952;SDS011;4511;50.890;8.054;2023-04-05T12:51:55;4.10;;;3.70;;
8952;SDS011;4511;50.890;8.054;2023-04-05T12:54:26;4.87;;;4.20;;
8952;SDS011;4511;50.890;8.054;2023-04-05T12:56:56;4.23;;;3.83;;
8952;SDS011;4511;50.890;8.054;2023-04-05T12:59:23;4.20;;;3.90;;
8952;SDS011;4511;50.890;8.054;2023-04-05T13:01:49;4.40;;;4.00;;
8952;SDS011;4511;50.890;8.054;2023-04-05T13:04:16;4.40;;;4.00;;
8952;SDS011;4511;50.890;8.054;2023-04-05T13:06:43;8.63;;;4.10;;
8952;SDS011;4511;50.890;8.054;2023-04-05T13:09:12;6.80;;;4.47;;
8952;SDS011;4511;50.890;8.054;2023-04-05T13:11:39;5.03;;;4.47;;
8952;SDS011;4511;50.890;8.054;2023-04-05T13:14:06;5.10;;;4.40;;
8952;SDS011;4511;50.890;8.054;2023-04-05T13:16:33;4.67;;;4.27;;
8952;SDS011;4511;50.890;8.054;2023-04-05T13:19:00;4.23;;;3.83;;
8952;SDS011;4511;50.890;8.054;2023-04-05T13:21:27;4.67;;;4.27;;
8952;SDS011;4511;50.890;8.054;2023-04-05T13:23:55;4.00;;;3.70;;
8952;SDS011;4511;50.890;8.054;2023-04-05T13:26:23;4.67;;;4.20;;
8952;SDS011;4511;50.890;8.054;2023-04-05T13:28:49;4.80;;;4.10;;
8952;SDS011;4511;50.890;8.054;2023-04-05T13:31:16;4.90;;;4.40;;
8952;SDS011;4511;50.890;8.054;2023-04-05T13:33:44;4.93;;;4.40;;
8952;SDS011;4511;50.890;8.054;2023-04-05T13:36:11;5.87;;;4.50;;
8952;SDS011;4511;50.890;8.054;2023-04-05T13:38:38;5.07;;;4.33;;
8952;SDS011;4511;50.890;8.054;2023-04-05T13:41:05;5.10;;;4.37;;
8952;SDS011;4511;50.890;8.054;2023-04-05T13:43:33;6.40;;;4.03;;
8952;SDS011;4511;50.890;8.054;2023-04-05T13:46:00;4.93;;;4.43;;
8952;SDS011;4511;50.890;8.054;2023-04-05T13:48:29;4.37;;;4.07;;
8952;SDS011;4511;50.890;8.054;2023-04-05T13:50:56;4.73;;;4.30;;
8952;SDS011;4511;50.890;8.054;2023-04-05T13:53:23;5.63;;;4.40;;
8952;SDS011;4511;50.890;8.054;2023-04-05T13:55:50;4.80;;;4.30;;
8952;SDS011;4511;50.890;8.054;2023-04-05T13:58:17;5.70;;;3.70;;
8952;SDS011;4511;50.890;8.054;2023-04-05T14:00:45;4.57;;;3.80;;
8952;SDS011;4511;50.890;8.054;2023-04-05T14:03:11;4.10;;;3.80;;
8952;SDS011;4511;50.890;8.054;2023-04-05T14:05:38;4.23;;;3.90;;
8952;SDS011;4511;50.890;8.054;2023-04-05T14:08:05;4.47;;;4.17;;
8952;SDS011;4511;50.890;8.054;2023-04-05T14:10:32;5.10;;;4.67;;
8952;SDS011;4511;50.890;8.054;2023-04-05T14:12:59;4.30;;;4.00;;
8952;SDS011;4511;50.890;8.054;2023-04-05T14:15:26;5.23;;;4.73;;
8952;SDS011;4511;50.890;8.054;2023-04-05T14:17:55;5.87;;;4.70;;
8952;SDS011;4511;50.890;8.054;2023-04-05T14:20:21;4.83;;;4.23;;
8952;SDS011;4511;50.890;8.054;2023-04-05T14:22:48;4.63;;;4.20;;
8952;SDS011;4511;50.890;8.054;2023-04-05T14:25:15;4.70;;;4.30;;
8952;SDS011;4511;50.890;8.054;2023-04-05T14:27:45;6.33;;;5.77;;
8952;SDS011;4511;50.890;8.054;2023-04-05T14:30:14;5.67;;;5.17;;
8952;SDS011;4511;50.890;8.054;2023-04-05T14:32:41;5.77;;;4.60;;
8952;SDS011;4511;50.890;8.054;2023-04-05T14:35:10;6.70;;;4.73;;
8952;SDS011;4511;50.890;8.054;2023-04-05T14:37:39;6.20;;;4.80;;
8952;SDS011;4511;50.890;8.054;2023-04-05T14:40:06;5.10;;;4.70;;
8952;SDS011;4511;50.890;8.054;2023-04-05T14:42:33;4.73;;;4.33;;
8952;SDS011;4511;50.890;8.054;2023-04-05T14:45:00;6.40;;;5.80;;
8952;SDS011;4511;50.890;8.054;2023-04-05T14:47:27;5.73;;;4.93;;
8952;SDS011;4511;50.890;8.054;2023-04-05T14:49:54;5.20;;;4.70;;
8952;SDS011;4511;50.890;8.054;2023-04-05T14:52:22;5.27;;;4.80;;
8952;SDS011;4511;50.890;8.054;2023-04-05T14:54:49;5.60;;;5.10;;
8952;SDS011;4511;50.890;8.054;2023-04-05T14:57:16;5.37;;;4.93;;
8952;SDS011;4511;50.890;8.054;2023-04-05T14:59:43;5.13;;;4.73;;
8952;SDS011;4511;50.890;8.054;2023-04-05T15:02:10;5.60;;;4.50;;
8952;SDS011;4511;50.890;8.054;2023-04-05T15:04:37;5.00;;;4.20;;
8952;SDS011;4511;50.890;8.054;2023-04-05T15:07:05;5.67;;;5.07;;
8952;SDS011;4511;50.890;8.054;2023-04-05T15:09:33;5.30;;;4.90;;
8952;SDS011;4511;50.890;8.054;2023-04-05T15:12:00;6.37;;;5.73;;
8952;SDS011;4511;50.890;8.054;2023-04-05T15:14:27;5.87;;;5.37;;
8952;SDS011;4511;50.890;8.054;2023-04-05T15:16:54;7.07;;;6.47;;
8952;SDS011;4511;50.890;8.054;2023-04-05T15:19:21;5.63;;;5.13;;
8952;SDS011;4511;50.890;8.054;2023-04-05T15:21:47;5.50;;;4.97;;
8952;SDS011;4511;50.890;8.054;2023-04-05T15:24:15;5.67;;;5.17;;
8952;SDS011;4511;50.890;8.054;2023-04-05T15:26:43;5.60;;;5.13;;
8952;SDS011;4511;50.890;8.054;2023-04-05T15:29:11;5.47;;;5.00;;
8952;SDS011;4511;50.890;8.054;2023-04-05T15:31:38;5.80;;;5.20;;
8952;SDS011;4511;50.890;8.054;2023-04-05T15:34:05;6.13;;;5.53;;
8952;SDS011;4511;50.890;8.054;2023-04-05T15:36:32;6.20;;;5.70;;
8952;SDS011;4511;50.890;8.054;2023-04-05T15:39:00;6.03;;;5.43;;